sensor_id;sensor_type;location;lat;lon;timestamp;P1;durP1;ratioP1;P2;durP2;ratioP2
42886;SDS011;29032;56.028;92.904;2023-04-01T00:04:45;5.77;;;1.93;;
42886;SDS011;29032;56.028;92.904;2023-04-01T00:10:10;6.03;;;2.33;;
42886;SDS011;29032;56.028;92.904;2023-04-01T00:15:13;6.17;;;2.83;;
42886;SDS011;29032;56.028;92.904;2023-04-01T00:20:15;3.77;;;2.43;;
42886;SDS011;29032;56.028;92.904;2023-04-01T00:25:20;4.20;;;2.23;;
42886;SDS011;29032;56.028;92.904;2023-04-01T00:30:23;5.33;;;2.30;;
42886;SDS011;29032;56.028;92.904;2023-04-01T00:35:26;7.70;;;2.60;;
42886;SDS011;29032;56.028;92.904;2023-04-01T00:40:30;5.43;;;2.03;;
42886;SDS011;29032;56.028;92.904;2023-04-01T00:45:54;3.93;;;2.10;;
42886;SDS011;29032;56.028;92.904;2023-04-01T00:50:57;7.73;;;2.77;;
42886;SDS011;29032;56.028;92.904;2023-04-01T01:01:09;3.90;;;2.00;;
42886;SDS011;29032;56.028;92.904;2023-04-01T01:06:15;5.83;;;2.27;;
42886;SDS011;29032;56.028;92.904;2023-04-01T01:11:29;5.63;;;2.20;;
42886;SDS011;29032;56.028;92.904;2023-04-01T01:16:37;5.40;;;3.40;;
42886;SDS011;29032;56.028;92.904;2023-04-01T01:21:56;5.87;;;2.33;;
42886;SDS011;29032;56.028;92.904;2023-04-01T01:27:11;6.10;;;2.37;;
42886;SDS011;29032;56.028;92.904;2023-04-01T01:32:48;3.87;;;2.10;;
42886;SDS011;29032;56.028;92.904;2023-04-01T01:38:11;3.27;;;1.80;;
42886;SDS011;29032;56.028;92.904;2023-04-01T01:43:23;2.77;;;1.80;;
42886;SDS011;29032;56.028;92.904;2023-04-01T01:48:28;5.88;;;2.72;;
42886;SDS011;29032;56.028;92.904;2023-04-01T01:53:34;4.73;;;1.93;;
42886;SDS011;29032;56.028;92.904;2023-04-01T01:58:38;4.23;;;2.03;;
42886;SDS011;29032;56.028;92.904;2023-04-01T02:04:04;7.53;;;2.60;;
42886;SDS011;29032;56.028;92.904;2023-04-01T02:09:08;5.50;;;2.50;;
42886;SDS011;29032;56.028;92.904;2023-04-01T02:14:13;5.63;;;2.88;;
42886;SDS011;29032;56.028;92.904;2023-04-01T02:19:18;6.03;;;2.70;;
42886;SDS011;29032;56.028;92.904;2023-04-01T02:24:26;7.75;;;2.78;;
42886;SDS011;29032;56.028;92.904;2023-04-01T02:29:32;6.07;;;2.70;;
42886;SDS011;29032;56.028;92.904;2023-04-01T02:34:34;7.40;;;3.37;;
42886;SDS011;29032;56.028;92.904;2023-04-01T02:39:39;6.13;;;3.07;;
42886;SDS011;29032;56.028;92.904;2023-04-01T02:44:42;8.20;;;3.47;;
42886;SDS011;29032;56.028;92.904;2023-04-01T02:49:44;8.53;;;3.37;;
42886;SDS011;29032;56.028;92.904;2023-04-01T02:54:49;5.57;;;3.33;;
42886;SDS011;29032;56.028;92.904;2023-04-01T02:59:52;6.13;;;3.23;;
42886;SDS011;29032;56.028;92.904;2023-04-01T03:04:54;8.20;;;3.33;;
42886;SDS011;29032;56.028;92.904;2023-04-01T03:09:57;11.47;;;4.33;;
42886;SDS011;29032;56.028;92.904;2023-04-01T03:14:59;7.67;;;3.20;;
42886;SDS011;29032;56.028;92.904;2023-04-01T03:20:02;7.80;;;3.17;;
42886;SDS011;29032;56.028;92.904;2023-04-01T03:25:26;8.13;;;3.50;;
42886;SDS011;29032;56.028;92.904;2023-04-01T03:30:29;11.07;;;3.40;;
42886;SDS011;29032;56.028;92.904;2023-04-01T03:35:31;7.00;;;2.63;;
42886;SDS011;29032;56.028;92.904;2023-04-01T03:40:35;7.80;;;3.50;;
42886;SDS011;29032;56.028;92.904;2023-04-01T03:45:42;6.00;;;3.83;;
42886;SDS011;29032;56.028;92.904;2023-04-01T03:50:48;4.80;;;2.40;;
42886;SDS011;29032;56.028;92.904;2023-04-01T03:55:52;5.33;;;2.90;;
42886;SDS011;29032;56.028;92.904;2023-04-01T04:00:54;7.63;;;2.90;;
42886;SDS011;29032;56.028;92.904;2023-04-01T04:06:16;7.37;;;2.90;;
42886;SDS011;29032;56.028;92.904;2023-04-01T04:11:22;6.03;;;2.67;;
42886;SDS011;29032;56.028;92.904;2023-04-01T04:16:44;5.87;;;2.57;;
42886;SDS011;29032;56.028;92.904;2023-04-01T04:22:06;6.50;;;2.53;;
42886;SDS011;29032;56.028;92.904;2023-04-01T04:27:10;7.23;;;2.97;;
42886;SDS011;29032;56.028;92.904;2023-04-01T04:37:29;5.93;;;2.87;;
42886;SDS011;29032;56.028;92.904;2023-04-01T04:42:53;7.30;;;4.37;;
42886;SDS011;29032;56.028;92.904;2023-04-01T04:47:55;4.10;;;2.60;;
42886;SDS011;29032;56.028;92.904;2023-04-01T04:52:58;4.73;;;2.27;;
42886;SDS011;29032;56.028;92.904;2023-04-01T04:58:02;6.30;;;2.80;;
42886;SDS011;29032;56.028;92.904;2023-04-01T05:03:04;4.73;;;2.47;;
42886;SDS011;29032;56.028;92.904;2023-04-01T05:08:07;3.83;;;2.20;;
42886;SDS011;29032;56.028;92.904;2023-04-01T05:13:30;5.63;;;2.20;;
42886;SDS011;29032;56.028;92.904;2023-04-01T05:18:52;2.67;;;1.93;;
42886;SDS011;29032;56.028;92.904;2023-04-01T05:23:55;3.83;;;1.80;;
42886;SDS011;29032;56.028;92.904;2023-04-01T05:29:19;3.00;;;1.83;;
42886;SDS011;29032;56.028;92.904;2023-04-01T05:34:28;5.17;;;2.70;;
42886;SDS011;29032;56.028;92.904;2023-04-01T05:39:31;3.53;;;2.30;;
42886;SDS011;29032;56.028;92.904;2023-04-01T05:44:58;3.87;;;2.07;;
42886;SDS011;29032;56.028;92.904;2023-04-01T05:50:26;4.17;;;1.90;;
42886;SDS011;29032;56.028;92.904;2023-04-01T05:55:28;3.23;;;1.90;;
42886;SDS011;29032;56.028;92.904;2023-04-01T06:00:32;4.73;;;2.40;;
42886;SDS011;29032;56.028;92.904;2023-04-01T06:11:20;3.80;;;2.33;;
42886;SDS011;29032;56.028;92.904;2023-04-01T06:16:57;5.13;;;2.43;;
42886;SDS011;29032;56.028;92.904;2023-04-01T06:22:14;4.70;;;2.50;;
42886;SDS011;29032;56.028;92.904;2023-04-01T06:32:54;3.23;;;1.93;;
42886;SDS011;29032;56.028;92.904;2023-04-01T06:38:19;3.93;;;2.57;;
42886;SDS011;29032;56.028;92.904;2023-04-01T06:43:35;4.03;;;3.03;;
42886;SDS011;29032;56.028;92.904;2023-04-01T06:49:10;6.90;;;2.60;;
42886;SDS011;29032;56.028;92.904;2023-04-01T06:54:42;2.70;;;2.17;;
42886;SDS011;29032;56.028;92.904;2023-04-01T07:00:11;3.80;;;2.30;;
42886;SDS011;29032;56.028;92.904;2023-04-01T07:05:19;4.10;;;2.00;;
42886;SDS011;29032;56.028;92.904;2023-04-01T07:10:23;3.90;;;2.10;;
42886;SDS011;29032;56.028;92.904;2023-04-01T07:15:55;3.60;;;2.60;;
42886;SDS011;29032;56.028;92.904;2023-04-01T07:21:07;5.47;;;3.00;;
42886;SDS011;29032;56.028;92.904;2023-04-01T07:26:35;3.27;;;2.13;;
42886;SDS011;29032;56.028;92.904;2023-04-01T07:31:57;4.67;;;2.67;;
42886;SDS011;29032;56.028;92.904;2023-04-01T07:37:21;4.23;;;2.60;;
42886;SDS011;29032;56.028;92.904;2023-04-01T07:42:31;4.50;;;2.67;;
42886;SDS011;29032;56.028;92.904;2023-04-01T07:47:48;3.93;;;2.50;;
42886;SDS011;29032;56.028;92.904;2023-04-01T07:53:27;3.97;;;2.70;;
42886;SDS011;29032;56.028;92.904;2023-04-01T07:58:36;5.37;;;3.43;;
42886;SDS011;29032;56.028;92.904;2023-04-01T08:04:11;5.30;;;2.53;;
42886;SDS011;29032;56.028;92.904;2023-04-01T08:09:50;3.90;;;2.53;;
42886;SDS011;29032;56.028;92.904;2023-04-01T08:15:18;3.47;;;2.37;;
42886;SDS011;29032;56.028;92.904;2023-04-01T08:20:41;7.83;;;2.73;;
42886;SDS011;29032;56.028;92.904;2023-04-01T08:25:52;3.97;;;2.70;;
42886;SDS011;29032;56.028;92.904;2023-04-01T08:31:01;3.53;;;2.10;;
42886;SDS011;29032;56.028;92.904;2023-04-01T08:36:08;3.70;;;2.50;;
42886;SDS011;29032;56.028;92.904;2023-04-01T08:41:42;6.63;;;2.80;;
42886;SDS011;29032;56.028;92.904;2023-04-01T08:47:09;5.50;;;2.70;;
42886;SDS011;29032;56.028;92.904;2023-04-01T08:52:24;2.90;;;2.27;;
42886;SDS011;29032;56.028;92.904;2023-04-01T08:57:43;5.17;;;2.67;;
42886;SDS011;29032;56.028;92.904;2023-04-01T09:03:21;3.80;;;2.77;;
42886;SDS011;29032;56.028;92.904;2023-04-01T09:08:43;4.67;;;2.80;;
42886;SDS011;29032;56.028;92.904;2023-04-01T09:19:58;7.63;;;3.10;;
42886;SDS011;29032;56.028;92.904;2023-04-01T09:31:09;4.30;;;2.70;;
42886;SDS011;29032;56.028;92.904;2023-04-01T09:37:13;4.23;;;2.60;;
42886;SDS011;29032;56.028;92.904;2023-04-01T09:42:27;5.40;;;2.87;;
42886;SDS011;29032;56.028;92.904;2023-04-01T09:47:54;3.40;;;2.50;;
42886;SDS011;29032;56.028;92.904;2023-04-01T09:53:34;3.87;;;2.40;;
42886;SDS011;29032;56.028;92.904;2023-04-01T09:59:01;4.97;;;2.87;;
42886;SDS011;29032;56.028;92.904;2023-04-01T10:11:17;5.60;;;2.53;;
42886;SDS011;29032;56.028;92.904;2023-04-01T10:16:40;5.67;;;2.90;;
42886;SDS011;29032;56.028;92.904;2023-04-01T10:51:24;6.17;;;2.93;;
42886;SDS011;29032;56.028;92.904;2023-04-01T10:56:43;4.90;;;3.13;;
42886;SDS011;29032;56.028;92.904;2023-04-01T11:08:18;7.03;;;2.60;;
42886;SDS011;29032;56.028;92.904;2023-04-01T11:19:35;3.33;;;2.63;;
42886;SDS011;29032;56.028;92.904;2023-04-01T11:25:04;3.83;;;2.60;;
42886;SDS011;29032;56.028;92.904;2023-04-01T11:30:40;3.77;;;2.63;;
42886;SDS011;29032;56.028;92.904;2023-04-01T11:35:54;4.03;;;2.83;;
42886;SDS011;29032;56.028;92.904;2023-04-01T11:41:30;9.87;;;2.90;;
42886;SDS011;29032;56.028;92.904;2023-04-01T11:47:12;5.27;;;2.80;;
42886;SDS011;29032;56.028;92.904;2023-04-01T11:52:31;7.47;;;3.07;;
42886;SDS011;29032;56.028;92.904;2023-04-01T12:09:37;8.97;;;3.60;;
42886;SDS011;29032;56.028;92.904;2023-04-01T12:14:54;6.37;;;3.63;;
42886;SDS011;29032;56.028;92.904;2023-04-01T12:20:11;9.23;;;4.80;;
42886;SDS011;29032;56.028;92.904;2023-04-01T12:25:29;8.57;;;3.80;;
42886;SDS011;29032;56.028;92.904;2023-04-01T12:31:17;8.23;;;3.73;;
42886;SDS011;29032;56.028;92.904;2023-04-01T12:36:34;8.00;;;4.23;;
42886;SDS011;29032;56.028;92.904;2023-04-01T12:41:49;9.33;;;4.43;;
42886;SDS011;29032;56.028;92.904;2023-04-01T12:52:50;10.33;;;4.53;;
42886;SDS011;29032;56.028;92.904;2023-04-01T12:58:15;9.00;;;4.20;;
42886;SDS011;29032;56.028;92.904;2023-04-01T13:03:40;11.03;;;4.73;;
42886;SDS011;29032;56.028;92.904;2023-04-01T13:09:11;10.33;;;4.50;;
42886;SDS011;29032;56.028;92.904;2023-04-01T13:14:29;12.73;;;5.50;;
42886;SDS011;29032;56.028;92.904;2023-04-01T13:19:44;14.63;;;4.47;;
42886;SDS011;29032;56.028;92.904;2023-04-01T13:24:51;10.63;;;5.03;;
42886;SDS011;29032;56.028;92.904;2023-04-01T13:30:03;12.13;;;4.77;;
42886;SDS011;29032;56.028;92.904;2023-04-01T13:35:35;36.93;;;16.30;;
42886;SDS011;29032;56.028;92.904;2023-04-01T13:41:05;25.70;;;10.43;;
42886;SDS011;29032;56.028;92.904;2023-04-01T13:46:37;16.37;;;7.67;;
42886;SDS011;29032;56.028;92.904;2023-04-01T13:52:00;21.00;;;10.00;;
42886;SDS011;29032;56.028;92.904;2023-04-01T13:57:20;22.07;;;10.63;;
42886;SDS011;29032;56.028;92.904;2023-04-01T14:02:47;22.83;;;10.57;;
42886;SDS011;29032;56.028;92.904;2023-04-01T14:08:03;17.03;;;9.53;;
42886;SDS011;29032;56.028;92.904;2023-04-01T14:13:34;15.37;;;7.03;;
42886;SDS011;29032;56.028;92.904;2023-04-01T14:18:47;12.73;;;6.67;;
42886;SDS011;29032;56.028;92.904;2023-04-01T14:24:03;11.37;;;6.53;;
42886;SDS011;29032;56.028;92.904;2023-04-01T14:29:43;10.67;;;5.53;;
42886;SDS011;29032;56.028;92.904;2023-04-01T14:35:02;14.20;;;6.45;;
42886;SDS011;29032;56.028;92.904;2023-04-01T14:40:28;14.30;;;7.80;;
42886;SDS011;29032;56.028;92.904;2023-04-01T14:46:08;17.67;;;9.13;;
42886;SDS011;29032;56.028;92.904;2023-04-01T14:51:29;20.00;;;8.63;;
42886;SDS011;29032;56.028;92.904;2023-04-01T14:56:38;28.23;;;10.60;;
42886;SDS011;29032;56.028;92.904;2023-04-01T15:01:44;20.47;;;9.93;;
42886;SDS011;29032;56.028;92.904;2023-04-01T15:06:56;21.40;;;10.37;;
42886;SDS011;29032;56.028;92.904;2023-04-01T15:12:14;21.87;;;11.13;;
42886;SDS011;29032;56.028;92.904;2023-04-01T15:17:34;19.90;;;9.13;;
42886;SDS011;29032;56.028;92.904;2023-04-01T15:22:49;19.23;;;8.67;;
42886;SDS011;29032;56.028;92.904;2023-04-01T15:28:06;18.98;;;8.75;;
42886;SDS011;29032;56.028;92.904;2023-04-01T15:33:27;15.77;;;7.40;;
42886;SDS011;29032;56.028;92.904;2023-04-01T15:38:43;13.67;;;7.47;;
42886;SDS011;29032;56.028;92.904;2023-04-01T15:43:52;12.70;;;5.60;;
42886;SDS011;29032;56.028;92.904;2023-04-01T15:48:57;13.73;;;6.60;;
42886;SDS011;29032;56.028;92.904;2023-04-01T15:54:32;14.73;;;7.23;;
42886;SDS011;29032;56.028;92.904;2023-04-01T16:00:05;14.67;;;6.50;;
42886;SDS011;29032;56.028;92.904;2023-04-01T16:05:29;15.13;;;6.93;;
42886;SDS011;29032;56.028;92.904;2023-04-01T16:10:44;14.20;;;5.93;;
42886;SDS011;29032;56.028;92.904;2023-04-01T16:16:08;14.50;;;6.87;;
42886;SDS011;29032;56.028;92.904;2023-04-01T16:21:24;13.60;;;6.43;;
42886;SDS011;29032;56.028;92.904;2023-04-01T16:26:37;11.75;;;6.18;;
42886;SDS011;29032;56.028;92.904;2023-04-01T16:31:46;11.70;;;6.03;;
42886;SDS011;29032;56.028;92.904;2023-04-01T16:36:54;14.00;;;5.80;;
42886;SDS011;29032;56.028;92.904;2023-04-01T16:42:11;13.00;;;6.47;;
42886;SDS011;29032;56.028;92.904;2023-04-01T16:47:29;11.40;;;5.33;;
42886;SDS011;29032;56.028;92.904;2023-04-01T16:58:18;16.23;;;5.50;;
42886;SDS011;29032;56.028;92.904;2023-04-01T17:03:31;9.87;;;5.53;;
42886;SDS011;29032;56.028;92.904;2023-04-01T17:08:42;8.63;;;4.37;;
42886;SDS011;29032;56.028;92.904;2023-04-01T17:14:04;10.27;;;4.83;;
42886;SDS011;29032;56.028;92.904;2023-04-01T17:19:21;9.77;;;4.40;;
42886;SDS011;29032;56.028;92.904;2023-04-01T17:24:43;10.30;;;5.13;;
42886;SDS011;29032;56.028;92.904;2023-04-01T17:35:26;11.37;;;3.90;;
42886;SDS011;29032;56.028;92.904;2023-04-01T17:40:54;11.23;;;4.93;;
42886;SDS011;29032;56.028;92.904;2023-04-01T17:46:08;6.10;;;3.43;;
42886;SDS011;29032;56.028;92.904;2023-04-01T17:51:25;6.50;;;3.73;;
42886;SDS011;29032;56.028;92.904;2023-04-01T17:56:59;9.73;;;4.10;;
42886;SDS011;29032;56.028;92.904;2023-04-01T18:02:15;7.43;;;4.33;;
42886;SDS011;29032;56.028;92.904;2023-04-01T18:07:33;10.40;;;5.93;;
42886;SDS011;29032;56.028;92.904;2023-04-01T18:18:48;14.03;;;6.57;;
42886;SDS011;29032;56.028;92.904;2023-04-01T18:24:02;12.93;;;6.20;;
42886;SDS011;29032;56.028;92.904;2023-04-01T18:29:18;12.47;;;6.07;;
42886;SDS011;29032;56.028;92.904;2023-04-01T18:34:36;10.60;;;5.33;;
42886;SDS011;29032;56.028;92.904;2023-04-01T18:39:48;10.00;;;5.07;;
42886;SDS011;29032;56.028;92.904;2023-04-01T18:44:55;17.20;;;5.97;;
42886;SDS011;29032;56.028;92.904;2023-04-01T18:50:02;11.23;;;5.10;;
42886;SDS011;29032;56.028;92.904;2023-04-01T18:55:21;10.23;;;4.27;;
42886;SDS011;29032;56.028;92.904;2023-04-01T19:00:32;8.85;;;3.97;;
42886;SDS011;29032;56.028;92.904;2023-04-01T19:05:38;9.10;;;4.47;;
42886;SDS011;29032;56.028;92.904;2023-04-01T19:10:45;7.37;;;3.73;;
42886;SDS011;29032;56.028;92.904;2023-04-01T19:16:19;8.10;;;3.90;;
42886;SDS011;29032;56.028;92.904;2023-04-01T19:21:32;4.97;;;3.13;;
42886;SDS011;29032;56.028;92.904;2023-04-01T19:26:40;5.23;;;2.83;;
42886;SDS011;29032;56.028;92.904;2023-04-01T19:31:50;5.00;;;3.30;;
42886;SDS011;29032;56.028;92.904;2023-04-01T19:37:21;7.77;;;3.17;;
42886;SDS011;29032;56.028;92.904;2023-04-01T19:42:32;3.77;;;2.77;;
42886;SDS011;29032;56.028;92.904;2023-04-01T19:47:46;9.90;;;3.70;;
42886;SDS011;29032;56.028;92.904;2023-04-01T19:53:18;7.90;;;3.67;;
42886;SDS011;29032;56.028;92.904;2023-04-01T19:58:28;8.07;;;3.73;;
42886;SDS011;29032;56.028;92.904;2023-04-01T20:03:36;15.27;;;5.97;;
42886;SDS011;29032;56.028;92.904;2023-04-01T20:08:45;18.13;;;8.80;;
42886;SDS011;29032;56.028;92.904;2023-04-01T20:14:01;28.77;;;12.40;;
42886;SDS011;29032;56.028;92.904;2023-04-01T20:19:34;32.23;;;11.83;;
42886;SDS011;29032;56.028;92.904;2023-04-01T20:24:41;28.47;;;11.33;;
42886;SDS011;29032;56.028;92.904;2023-04-01T20:30:08;25.13;;;10.73;;
42886;SDS011;29032;56.028;92.904;2023-04-01T20:35:40;25.07;;;10.23;;
42886;SDS011;29032;56.028;92.904;2023-04-01T20:40:49;25.63;;;10.47;;
42886;SDS011;29032;56.028;92.904;2023-04-01T20:45:58;20.90;;;8.63;;
42886;SDS011;29032;56.028;92.904;2023-04-01T20:51:03;16.90;;;7.60;;
42886;SDS011;29032;56.028;92.904;2023-04-01T20:56:31;14.47;;;6.40;;
42886;SDS011;29032;56.028;92.904;2023-04-01T21:01:40;14.53;;;5.93;;
42886;SDS011;29032;56.028;92.904;2023-04-01T21:06:52;7.27;;;3.97;;
42886;SDS011;29032;56.028;92.904;2023-04-01T21:12:36;11.93;;;4.50;;
42886;SDS011;29032;56.028;92.904;2023-04-01T21:17:54;7.03;;;3.93;;
42886;SDS011;29032;56.028;92.904;2023-04-01T21:23:17;13.45;;;5.68;;
42886;SDS011;29032;56.028;92.904;2023-04-01T21:28:34;18.10;;;7.20;;
42886;SDS011;29032;56.028;92.904;2023-04-01T21:33:45;21.20;;;8.77;;
42886;SDS011;29032;56.028;92.904;2023-04-01T21:39:08;21.63;;;9.67;;
42886;SDS011;29032;56.028;92.904;2023-04-01T21:44:31;28.53;;;11.33;;
42886;SDS011;29032;56.028;92.904;2023-04-01T21:50:10;32.23;;;11.97;;
42886;SDS011;29032;56.028;92.904;2023-04-01T21:56:00;23.17;;;10.50;;
42886;SDS011;29032;56.028;92.904;2023-04-01T22:01:56;17.73;;;7.67;;
42886;SDS011;29032;56.028;92.904;2023-04-01T22:07:44;22.80;;;9.90;;
42886;SDS011;29032;56.028;92.904;2023-04-01T22:12:54;22.60;;;10.47;;
42886;SDS011;29032;56.028;92.904;2023-04-01T22:18:05;24.83;;;10.03;;
42886;SDS011;29032;56.028;92.904;2023-04-01T22:23:35;22.90;;;9.57;;
42886;SDS011;29032;56.028;92.904;2023-04-01T22:28:44;21.43;;;9.00;;
42886;SDS011;29032;56.028;92.904;2023-04-01T22:33:55;23.67;;;8.80;;
42886;SDS011;29032;56.028;92.904;2023-04-01T22:39:08;19.43;;;9.77;;
42886;SDS011;29032;56.028;92.904;2023-04-01T22:44:28;18.13;;;8.33;;
42886;SDS011;29032;56.028;92.904;2023-04-01T22:54:46;19.90;;;9.27;;
42886;SDS011;29032;56.028;92.904;2023-04-01T22:59:54;26.70;;;9.37;;
42886;SDS011;29032;56.028;92.904;2023-04-01T23:05:03;24.77;;;10.17;;
42886;SDS011;29032;56.028;92.904;2023-04-01T23:10:14;25.90;;;9.40;;
42886;SDS011;29032;56.028;92.904;2023-04-01T23:15:21;25.87;;;9.97;;
42886;SDS011;29032;56.028;92.904;2023-04-01T23:20:53;36.57;;;11.30;;
42886;SDS011;29032;56.028;92.904;2023-04-01T23:26:10;22.70;;;8.93;;
42886;SDS011;29032;56.028;92.904;2023-04-01T23:31:32;20.60;;;8.97;;
42886;SDS011;29032;56.028;92.904;2023-04-01T23:36:58;20.40;;;7.30;;
42886;SDS011;29032;56.028;92.904;2023-04-01T23:42:06;16.13;;;7.33;;
42886;SDS011;29032;56.028;92.904;2023-04-01T23:47:15;17.70;;;8.00;;
42886;SDS011;29032;56.028;92.904;2023-04-01T23:52:22;16.25;;;5.88;;
42886;SDS011;29032;56.028;92.904;2023-04-01T23:57:29;10.20;;;5.93;;
